Time;durP1;ratioP1;P1;durP2;ratioP2;P2;SDS_P1;SDS_P2;PMS_P1;PMS_P2;Temp;Humidity;BMP_temperature;BMP_pressure;BME280_temperature;BME280_humidity;BME280_pressure;Samples;Min_cycle;Max_cycle;Signal;HPM_P1;HPM_P2
2022/07/04 00:00:19;;;;;;;1.52;0.90;;;22.80;50.00;;;;;;5085486;28;20422;-85
2022/07/04 00:02:45;;;;;;;1.20;1.00;;;22.80;50.10;;;;;;5093158;28;20054;-84
2022/07/04 00:05:12;;;;;;;1.52;0.90;;;22.80;50.10;;;;;;5088100;28;20020;-85
2022/07/04 00:07:42;;;;;;;0.63;0.63;;;22.70;50.20;;;;;;5107972;28;20107;-85
2022/07/04 00:10:10;;;;;;;0.95;0.80;;;22.60;50.20;;;;;;5094002;28;20032;-85
2022/07/04 00:12:36;;;;;;;1.83;0.90;;;22.60;50.20;;;;;;5088793;28;20020;-85
2022/07/04 00:15:04;;;;;;;1.52;0.90;;;22.60;50.30;;;;;;5069709;28;20099;-86
2022/07/04 00:17:30;;;;;;;1.33;0.93;;;22.50;50.30;;;;;;5101797;28;20032;-85
2022/07/04 00:19:56;;;;;;;1.65;0.80;;;22.50;50.40;;;;;;5093345;28;20111;-85
2022/07/04 00:22:22;;;;;;;1.80;1.25;;;22.50;50.40;;;;;;5094584;28;20460;-85
2022/07/04 00:24:48;;;;;;;1.77;0.90;;;22.40;50.40;;;;;;5091471;28;20170;-85
2022/07/04 00:27:14;;;;;;;1.00;0.90;;;22.40;50.50;;;;;;5084096;28;20102;-85
2022/07/04 00:29:39;;;;;;;0.85;0.80;;;22.30;50.50;;;;;;5075335;28;20149;-85
2022/07/04 00:32:05;;;;;;;0.98;0.90;;;22.30;50.60;;;;;;5086509;28;20017;-85
2022/07/04 00:34:32;;;;;;;1.15;1.05;;;22.30;50.60;;;;;;5087925;28;20119;-85
2022/07/04 00:36:57;;;;;;;1.38;1.10;;;22.30;50.70;;;;;;5075238;28;20097;-85
2022/07/04 00:39:23;;;;;;;1.15;1.00;;;22.20;50.70;;;;;;5077501;28;20040;-85
2022/07/04 00:41:49;;;;;;;2.17;1.20;;;22.20;50.70;;;;;;5084250;28;20523;-85
2022/07/04 00:44:17;;;;;;;0.80;0.80;;;22.20;50.80;;;;;;5081437;28;20070;-85
2022/07/04 00:46:44;;;;;;;1.30;0.95;;;22.10;50.90;;;;;;5085592;28;20033;-85
2022/07/04 00:49:12;;;;;;;1.35;1.00;;;22.10;50.90;;;;;;5090104;28;20032;-85
2022/07/04 00:51:39;;;;;;;1.17;0.82;;;22.10;51.00;;;;;;5099477;28;20020;-86
2022/07/04 00:54:06;;;;;;;1.38;0.90;;;22.00;51.00;;;;;;5099649;28;20031;-85
2022/07/04 00:56:35;;;;;;;2.88;1.13;;;21.90;51.00;;;;;;5092212;28;20028;-85
2022/07/04 00:59:00;;;;;;;1.17;0.85;;;22.00;51.10;;;;;;5099946;28;20032;-85
2022/07/04 01:01:27;;;;;;;1.10;1.00;;;21.90;51.10;;;;;;5087406;28;20499;-85
2022/07/04 01:03:53;;;;;;;1.25;0.90;;;21.90;51.10;;;;;;5081495;28;20032;-85
2022/07/04 01:06:20;;;;;;;1.08;1.00;;;21.80;51.10;;;;;;5082691;28;20077;-86
2022/07/04 01:08:45;;;;;;;1.98;1.05;;;21.80;51.20;;;;;;5091571;28;20020;-85
2022/07/04 01:11:12;;;;;;;1.42;0.85;;;21.80;51.20;;;;;;5076389;28;20039;-84
2022/07/04 01:13:40;;;;;;;0.77;0.77;;;21.70;51.30;;;;;;5092214;28;20129;-86
2022/07/04 01:16:07;;;;;;;1.00;1.00;;;21.70;51.30;;;;;;5085188;28;20540;-84
2022/07/04 01:18:32;;;;;;;2.10;1.00;;;21.60;51.30;;;;;;5058918;28;20051;-85
2022/07/04 01:20:58;;;;;;;1.70;1.10;;;21.60;51.40;;;;;;5083576;28;20468;-85
2022/07/04 01:23:24;;;;;;;1.90;1.00;;;21.60;51.50;;;;;;5105913;28;20040;-85
2022/07/04 01:25:50;;;;;;;1.63;0.90;;;21.50;51.50;;;;;;5104037;28;20024;-85
2022/07/04 01:28:18;;;;;;;1.42;0.90;;;21.50;51.60;;;;;;5081123;28;20024;-85
2022/07/04 01:30:45;;;;;;;1.00;0.90;;;21.40;51.60;;;;;;5093596;28;20041;-85
2022/07/04 01:33:11;;;;;;;1.20;1.10;;;21.40;51.70;;;;;;5083374;28;20035;-85
2022/07/04 01:35:36;;;;;;;1.30;1.00;;;21.40;51.70;;;;;;5100395;28;20123;-85
2022/07/04 01:38:02;;;;;;;0.93;0.82;;;21.40;51.80;;;;;;5096779;28;20041;-85
2022/07/04 01:40:28;;;;;;;1.17;0.80;;;21.30;51.80;;;;;;5085792;28;20035;-85
2022/07/04 01:42:54;;;;;;;1.00;0.80;;;21.30;51.80;;;;;;5083030;28;20024;-85
2022/07/04 01:45:20;;;;;;;1.77;1.15;;;21.20;51.90;;;;;;5084566;28;20035;-85
2022/07/04 01:47:46;;;;;;;0.80;0.80;;;21.20;51.90;;;;;;5076781;28;20029;-85
2022/07/04 01:50:12;;;;;;;0.98;0.95;;;21.20;52.00;;;;;;5080401;28;20032;-84
2022/07/04 01:52:41;;;;;;;1.42;1.00;;;21.20;52.10;;;;;;5080487;28;20035;-85
2022/07/04 01:55:09;;;;;;;1.40;1.00;;;21.10;52.10;;;;;;5084803;28;20079;-85
2022/07/04 01:57:34;;;;;;;1.00;0.93;;;21.10;52.20;;;;;;5071518;28;20040;-85
2022/07/04 02:02:44;;;;;;;1.10;1.00;;;21.00;52.20;;;;;;5080099;28;20035;-84
2022/07/04 02:05:10;;;;;;;1.20;1.10;;;21.00;52.20;;;;;;5057279;28;20025;-85
2022/07/04 02:07:36;;;;;;;1.30;1.20;;;20.90;52.30;;;;;;5090490;28;20038;-85
2022/07/04 02:10:03;;;;;;;1.42;1.05;;;20.90;52.40;;;;;;5088713;28;20032;-85
2022/07/04 02:15:13;;;;;;;1.77;1.25;;;20.80;52.50;;;;;;5092093;28;20468;-84
2022/07/04 02:17:38;;;;;;;2.17;1.20;;;20.80;52.50;;;;;;5090585;28;20034;-85
2022/07/04 02:20:06;;;;;;;1.17;1.08;;;20.80;52.50;;;;;;5072604;28;20070;-85
2022/07/04 02:22:32;;;;;;;1.75;1.13;;;20.80;52.60;;;;;;5057442;28;20035;-84
2022/07/04 02:24:57;;;;;;;1.33;1.10;;;20.70;52.60;;;;;;5057657;28;20020;-84
2022/07/04 02:27:23;;;;;;;1.70;1.33;;;20.70;52.70;;;;;;5073551;28;20041;-85
2022/07/04 02:29:49;;;;;;;1.85;1.40;;;20.70;52.70;;;;;;5086255;28;20107;-85
2022/07/04 02:32:15;;;;;;;1.95;1.23;;;20.60;52.70;;;;;;5077709;28;20078;-84
2022/07/04 02:34:41;;;;;;;1.92;1.48;;;20.60;52.80;;;;;;5080948;28;20039;-85
2022/07/04 02:37:07;;;;;;;1.60;1.40;;;20.60;52.80;;;;;;5102893;28;20079;-85
2022/07/04 02:39:33;;;;;;;1.67;1.27;;;20.60;52.90;;;;;;5097153;28;20071;-85
2022/07/04 02:41:58;;;;;;;1.33;1.23;;;20.60;52.90;;;;;;5081041;28;20058;-84
2022/07/04 02:44:24;;;;;;;2.05;1.38;;;20.50;53.00;;;;;;5098070;28;20032;-85
2022/07/04 02:46:50;;;;;;;1.23;1.13;;;20.50;53.00;;;;;;5098310;28;20128;-84
2022/07/04 02:49:16;;;;;;;1.80;1.20;;;20.50;53.00;;;;;;5077706;28;20474;-84
2022/07/04 02:51:42;;;;;;;1.27;1.13;;;20.40;53.00;;;;;;5097922;28;20148;-84
2022/07/04 02:54:08;;;;;;;1.73;1.35;;;20.40;53.00;;;;;;5097293;28;20039;-84
2022/07/04 02:56:34;;;;;;;2.28;1.20;;;20.40;53.10;;;;;;5080001;28;20459;-84
2022/07/04 02:58:59;;;;;;;1.58;1.13;;;20.30;53.10;;;;;;5068049;28;20035;-84
2022/07/04 03:01:25;;;;;;;1.40;1.30;;;20.30;53.10;;;;;;5098103;28;20031;-85
2022/07/04 03:03:51;;;;;;;1.73;1.15;;;20.30;53.20;;;;;;5055908;28;20085;-86
2022/07/04 03:06:17;;;;;;;1.30;1.20;;;20.30;53.20;;;;;;5077670;28;20070;-85
2022/07/04 03:08:43;;;;;;;1.42;1.30;;;20.30;53.30;;;;;;5099711;28;20024;-85
2022/07/04 03:11:09;;;;;;;1.23;1.10;;;20.20;53.30;;;;;;5114433;28;20035;-84
2022/07/04 03:13:36;;;;;;;1.52;1.40;;;20.20;53.30;;;;;;5089180;28;20437;-84
2022/07/04 03:16:02;;;;;;;2.40;1.50;;;20.20;53.40;;;;;;5113130;28;20304;-85
2022/07/04 03:18:28;;;;;;;1.92;1.40;;;20.20;53.40;;;;;;5097069;28;20055;-85
2022/07/04 03:20:54;;;;;;;2.03;1.50;;;20.10;53.40;;;;;;5098039;28;20529;-85
2022/07/04 03:23:19;;;;;;;1.77;1.40;;;20.10;53.50;;;;;;5115924;28;20523;-85
2022/07/04 03:25:45;;;;;;;1.40;1.13;;;20.10;53.50;;;;;;5092847;28;20035;-85
2022/07/04 03:28:11;;;;;;;2.45;1.33;;;20.10;53.60;;;;;;5110288;28;20027;-84
2022/07/04 03:30:37;;;;;;;1.83;1.38;;;20.00;53.60;;;;;;5095595;28;20036;-84
2022/07/04 03:33:03;;;;;;;2.22;1.50;;;20.00;53.60;;;;;;5097263;28;20538;-84
2022/07/04 03:35:29;;;;;;;2.67;1.50;;;20.00;53.70;;;;;;5080431;28;20035;-84
2022/07/04 03:37:55;;;;;;;2.00;1.60;;;20.00;53.70;;;;;;5096566;28;20047;-84
2022/07/04 03:40:21;;;;;;;1.67;1.45;;;19.90;53.70;;;;;;5115675;28;20027;-84
2022/07/04 03:42:47;;;;;;;2.03;1.35;;;19.90;53.80;;;;;;5114078;28;20506;-85
2022/07/04 03:45:13;;;;;;;1.95;1.55;;;19.90;53.90;;;;;;5080377;28;20674;-84
2022/07/04 03:47:39;;;;;;;1.77;1.38;;;19.90;53.90;;;;;;5097313;28;20114;-83
2022/07/04 03:50:05;;;;;;;1.73;1.60;;;19.80;53.90;;;;;;5080505;28;20027;-85
2022/07/04 03:52:31;;;;;;;2.28;1.58;;;19.80;53.90;;;;;;5074301;28;20024;-84
2022/07/04 03:54:57;;;;;;;1.88;1.60;;;19.80;54.00;;;;;;5086697;28;20594;-85
2022/07/04 03:57:23;;;;;;;2.80;1.77;;;19.80;54.00;;;;;;5109995;28;20040;-85
2022/07/04 03:59:48;;;;;;;2.65;1.70;;;19.80;54.10;;;;;;5095326;28;20391;-84
2022/07/04 04:02:14;;;;;;;2.05;1.65;;;19.70;54.10;;;;;;5096021;28;20029;-85
2022/07/04 04:07:25;;;;;;;2.42;1.75;;;19.70;54.20;;;;;;5099788;28;20040;-84
2022/07/04 04:09:50;;;;;;;2.25;2.00;;;19.60;54.20;;;;;;5113138;28;20059;-85
2022/07/04 04:12:16;;;;;;;1.95;1.70;;;19.60;54.20;;;;;;5081355;28;20032;-84
2022/07/04 04:14:42;;;;;;;2.17;1.70;;;19.60;54.30;;;;;;5118104;28;20038;-85
2022/07/04 04:17:08;;;;;;;1.85;1.60;;;19.60;54.40;;;;;;5082855;28;20043;-85
2022/07/04 04:19:33;;;;;;;2.03;1.67;;;19.60;54.50;;;;;;5115174;28;20405;-84
2022/07/04 04:21:59;;;;;;;1.50;1.40;;;19.60;54.50;;;;;;5079741;28;20466;-85
2022/07/04 04:24:25;;;;;;;2.25;1.75;;;19.50;54.50;;;;;;5079909;28;20081;-85
2022/07/04 04:26:51;;;;;;;2.13;1.70;;;19.50;54.50;;;;;;5107044;28;20387;-85
2022/07/04 04:29:16;;;;;;;3.67;1.77;;;19.50;54.50;;;;;;5096542;28;20521;-85
2022/07/04 04:31:42;;;;;;;2.30;1.80;;;19.50;55.20;;;;;;5111441;28;20047;-85
2022/07/04 04:34:08;;;;;;;2.15;1.70;;;19.50;54.60;;;;;;5110698;28;20488;-84
2022/07/04 04:36:34;;;;;;;2.67;1.88;;;19.50;54.70;;;;;;5094105;28;20151;-84
2022/07/04 04:38:59;;;;;;;2.22;1.75;;;19.40;54.70;;;;;;5091930;28;20086;-84
2022/07/04 04:41:25;;;;;;;1.98;1.52;;;19.40;54.80;;;;;;5101715;28;20035;-84
2022/07/04 04:43:51;;;;;;;2.08;1.77;;;19.40;54.80;;;;;;5094108;28;20031;-83
2022/07/04 04:46:17;;;;;;;2.20;1.60;;;19.40;54.80;;;;;;5113173;28;20027;-83
2022/07/04 04:48:42;;;;;;;2.45;1.83;;;19.40;54.90;;;;;;5112667;28;20035;-81
2022/07/04 04:51:08;;;;;;;2.28;1.70;;;19.40;54.90;;;;;;5112696;28;20089;-84
2022/07/04 04:53:34;;;;;;;2.53;1.70;;;19.40;55.00;;;;;;5096225;28;20397;-84
2022/07/04 04:56:00;;;;;;;2.28;1.88;;;19.40;55.00;;;;;;5087920;28;20036;-82
2022/07/04 04:58:26;;;;;;;1.70;1.60;;;19.40;55.00;;;;;;5081616;28;20032;-83
2022/07/04 05:00:51;;;;;;;2.90;1.70;;;19.40;55.10;;;;;;5081012;28;20078;-85
2022/07/04 05:03:17;;;;;;;1.58;1.48;;;19.40;55.10;;;;;;5078964;28;20038;-84
2022/07/04 05:05:44;;;;;;;1.50;1.40;;;19.30;55.10;;;;;;5068006;28;20081;-83
2022/07/04 05:08:12;;;;;;;2.03;1.70;;;19.30;55.10;;;;;;5104341;28;20914;-84
2022/07/04 05:10:39;;;;;;;1.92;1.65;;;19.30;55.10;;;;;;5058900;28;20036;-83
2022/07/04 05:13:05;;;;;;;1.50;1.40;;;19.30;55.20;;;;;;5083725;28;20040;-85
2022/07/04 05:15:31;;;;;;;2.42;1.60;;;19.30;55.20;;;;;;5075269;28;20024;-84
2022/07/04 05:17:57;;;;;;;1.95;1.60;;;19.30;55.20;;;;;;5092207;28;20043;-84
2022/07/04 05:20:22;;;;;;;1.50;1.40;;;19.30;55.20;;;;;;5079405;28;20024;-83
2022/07/04 05:22:48;;;;;;;2.60;1.73;;;19.30;55.30;;;;;;5080110;28;20468;-80
2022/07/04 05:25:14;;;;;;;2.00;1.70;;;19.30;55.30;;;;;;5097754;28;20043;-81
2022/07/04 05:27:40;;;;;;;2.70;1.70;;;19.30;55.30;;;;;;5075064;28;20399;-80
2022/07/04 05:30:07;;;;;;;1.52;1.38;;;19.30;55.30;;;;;;5074606;28;20032;-81
2022/07/04 05:32:33;;;;;;;1.92;1.60;;;19.30;55.40;;;;;;5110189;28;20031;-82
2022/07/04 05:34:59;;;;;;;1.88;1.50;;;19.30;55.40;;;;;;5065625;28;20036;-82
2022/07/04 05:37:25;;;;;;;2.55;1.67;;;19.30;55.40;;;;;;5109894;28;20051;-82
2022/07/04 05:39:51;;;;;;;2.08;1.50;;;19.30;55.40;;;;;;5080634;28;20080;-81
2022/07/04 05:42:17;;;;;;;2.05;1.63;;;19.30;55.40;;;;;;5093962;28;20040;-84
2022/07/04 05:44:43;;;;;;;2.15;1.35;;;19.30;55.40;;;;;;5076513;28;20058;-83
2022/07/04 05:47:09;;;;;;;1.95;1.50;;;19.30;55.50;;;;;;5075113;28;20519;-83
2022/07/04 05:49:35;;;;;;;2.28;1.50;;;19.30;55.50;;;;;;5074362;28;20039;-83
2022/07/04 05:52:01;;;;;;;1.65;1.35;;;19.30;55.50;;;;;;5073472;28;20021;-83
2022/07/04 05:54:27;;;;;;;1.58;1.48;;;19.30;55.50;;;;;;5091850;28;20031;-83
2022/07/04 05:56:53;;;;;;;2.03;1.50;;;19.40;55.60;;;;;;5090698;28;20036;-83
2022/07/04 05:59:19;;;;;;;1.60;1.30;;;19.40;55.60;;;;;;5057270;28;20036;-84
2022/07/04 06:01:45;;;;;;;2.08;1.50;;;19.40;55.60;;;;;;5075561;28;20060;-82
2022/07/04 06:04:11;;;;;;;2.05;1.63;;;19.40;55.60;;;;;;5086995;28;20119;-83
2022/07/04 06:06:36;;;;;;;2.30;1.67;;;19.40;55.60;;;;;;5094414;28;20023;-84
2022/07/04 06:09:03;;;;;;;2.53;1.25;;;19.40;55.60;;;;;;5078052;28;20496;-83
2022/07/04 06:11:29;;;;;;;1.60;1.40;;;19.40;55.60;;;;;;5099443;28;20353;-88
2022/07/04 06:13:55;;;;;;;1.67;1.38;;;19.40;55.70;;;;;;5073981;28;20545;-86
2022/07/04 06:16:21;;;;;;;1.65;1.40;;;19.40;55.70;;;;;;5074316;28;20114;-84
2022/07/04 06:18:47;;;;;;;1.92;1.50;;;19.50;55.70;;;;;;5082064;28;20122;-82
2022/07/04 06:21:13;;;;;;;1.30;1.10;;;19.40;55.70;;;;;;5094367;28;20482;-81
2022/07/04 06:23:39;;;;;;;1.80;1.30;;;19.50;55.70;;;;;;5094249;28;20023;-82
2022/07/04 06:26:05;;;;;;;1.48;1.38;;;19.50;55.70;;;;;;5077325;28;20051;-83
2022/07/04 06:28:31;;;;;;;1.67;1.30;;;19.50;55.70;;;;;;5094645;28;20058;-84
2022/07/04 06:30:56;;;;;;;1.58;1.38;;;19.50;55.70;;;;;;5107476;28;20028;-81
2022/07/04 06:33:22;;;;;;;1.88;1.27;;;19.50;55.70;;;;;;5089091;28;20028;-82
2022/07/04 06:35:54;;;;;;;1.50;1.20;;;19.60;55.80;;;;;;5077340;28;20490;-82
2022/07/04 06:38:27;;;;;;;1.90;1.40;;;19.60;55.80;;;;;;5110861;28;20048;-83
2022/07/04 06:40:55;;;;;;;1.17;1.10;;;19.60;55.90;;;;;;5111472;28;20497;-82
2022/07/04 06:43:22;;;;;;;1.60;1.50;;;19.60;55.90;;;;;;5110229;28;20023;-82
2022/07/04 06:45:48;;;;;;;1.38;1.20;;;19.70;55.90;;;;;;5075331;28;20032;-82
2022/07/04 06:48:14;;;;;;;1.30;1.20;;;19.70;55.80;;;;;;5077350;28;20038;-83
2022/07/04 06:50:39;;;;;;;2.75;1.38;;;19.70;55.80;;;;;;5111117;28;20035;-86
2022/07/04 06:53:06;;;;;;;2.03;1.20;;;19.80;55.90;;;;;;5075444;28;20084;-84
2022/07/04 06:55:32;;;;;;;1.45;1.25;;;19.80;55.90;;;;;;5057367;28;20499;-83
2022/07/04 06:57:58;;;;;;;2.63;1.30;;;19.80;55.80;;;;;;5075044;28;20115;-83
2022/07/04 07:00:24;;;;;;;1.35;1.25;;;19.80;55.80;;;;;;5074250;28;20035;-83
2022/07/04 07:02:50;;;;;;;1.20;1.10;;;19.90;55.80;;;;;;5074391;28;20467;-83
2022/07/04 07:05:16;;;;;;;1.63;1.33;;;19.90;55.80;;;;;;5073840;28;20028;-82
2022/07/04 07:07:42;;;;;;;1.17;1.10;;;19.90;55.80;;;;;;5098764;28;20106;-86
2022/07/04 07:10:08;;;;;;;1.25;1.15;;;20.00;55.80;;;;;;5057305;28;20036;-84
2022/07/04 07:12:35;;;;;;;2.75;1.20;;;20.00;55.80;;;;;;5080071;28;20467;-84
2022/07/04 07:15:01;;;;;;;0.95;0.93;;;20.00;55.80;;;;;;5115716;28;20050;-87
2022/07/04 07:17:28;;;;;;;2.00;1.40;;;20.10;55.80;;;;;;5082904;28;20060;-85
2022/07/04 07:19:54;;;;;;;1.63;1.20;;;20.10;55.80;;;;;;5114678;28;20020;-87
2022/07/04 07:22:21;;;;;;;1.92;1.40;;;20.20;55.80;;;;;;5077516;28;20100;-83
2022/07/04 07:24:49;;;;;;;1.85;1.42;;;20.20;55.70;;;;;;5087651;28;20028;-83
2022/07/04 07:27:15;;;;;;;1.52;1.30;;;20.20;55.70;;;;;;5076919;28;20040;-84
2022/07/04 07:29:41;;;;;;;1.02;1.00;;;20.30;55.70;;;;;;5059794;28;20071;-83
2022/07/04 07:32:07;;;;;;;1.45;1.30;;;20.30;55.70;;;;;;5073922;28;20032;-83
2022/07/04 07:34:33;;;;;;;1.55;1.27;;;20.30;55.70;;;;;;5079077;28;20027;-83
2022/07/04 07:36:59;;;;;;;2.45;1.67;;;20.40;55.70;;;;;;5096423;28;20031;-83
2022/07/04 07:39:25;;;;;;;1.40;1.10;;;20.40;55.70;;;;;;5097154;28;20078;-83
2022/07/04 07:41:51;;;;;;;1.30;1.20;;;20.50;55.70;;;;;;5096023;28;20373;-84
2022/07/04 07:44:16;;;;;;;2.05;1.40;;;20.50;55.70;;;;;;5096055;28;20036;-84
2022/07/04 07:46:43;;;;;;;2.95;1.30;;;20.50;55.60;;;;;;5076364;28;20090;-83
2022/07/04 07:49:08;;;;;;;1.55;1.30;;;20.60;55.70;;;;;;5076260;28;20051;-84
2022/07/04 07:51:38;;;;;;;1.98;1.17;;;20.60;55.60;;;;;;5061490;28;20067;-83
2022/07/04 07:54:06;;;;;;;1.50;1.30;;;20.70;55.70;;;;;;5078302;28;20051;-83
2022/07/04 07:56:32;;;;;;;2.35;1.30;;;20.70;55.60;;;;;;5093851;28;20052;-85
2022/07/04 07:58:58;;;;;;;2.03;1.38;;;20.70;56.20;;;;;;5076456;28;20078;-84
2022/07/04 08:01:27;;;;;;;2.28;1.48;;;20.80;55.50;;;;;;5085883;28;20035;-83
2022/07/04 08:06:37;;;;;;;1.40;1.30;;;20.90;55.40;;;;;;5085211;28;20058;-83
2022/07/04 08:09:03;;;;;;;1.60;1.35;;;21.00;55.40;;;;;;5096339;28;20035;-86
2022/07/04 08:11:29;;;;;;;1.35;1.17;;;21.00;55.30;;;;;;5079709;28;20027;-88
2022/07/04 08:13:55;;;;;;;1.95;1.23;;;21.10;55.30;;;;;;5094629;28;20032;-84
2022/07/04 08:16:21;;;;;;;1.35;1.10;;;21.20;55.20;;;;;;5096809;28;20035;-85
2022/07/04 08:18:47;;;;;;;1.30;1.20;;;21.20;55.10;;;;;;5097290;28;20120;-85
2022/07/04 08:21:18;;;;;;;2.03;1.27;;;21.30;55.00;;;;;;5081766;28;20028;-83
2022/07/04 08:23:44;;;;;;;1.80;1.30;;;21.40;55.00;;;;;;5104936;28;20044;-83
2022/07/04 08:26:10;;;;;;;1.23;1.13;;;21.50;55.00;;;;;;5084434;28;20539;-83
2022/07/04 08:28:36;;;;;;;1.17;1.08;;;21.50;54.90;;;;;;5077284;28;20044;-84
2022/07/04 08:31:01;;;;;;;1.60;1.17;;;21.60;54.90;;;;;;5058888;28;20468;-84
2022/07/04 08:33:27;;;;;;;1.70;1.23;;;21.70;54.80;;;;;;5069803;28;20475;-85
2022/07/04 08:35:57;;;;;;;1.98;1.13;;;21.70;54.70;;;;;;5074268;28;20044;-85
2022/07/04 08:38:23;;;;;;;2.58;1.27;;;21.80;54.80;;;;;;5068871;28;20103;-84
2022/07/04 08:40:55;;;;;;;1.90;1.20;;;21.90;54.70;;;;;;5077685;28;20162;-86
2022/07/04 08:43:23;;;;;;;1.75;1.30;;;22.00;54.70;;;;;;5102991;28;20047;-87
2022/07/04 08:45:52;;;;;;;2.53;1.35;;;22.00;54.60;;;;;;5075041;28;20097;-86
2022/07/04 08:48:25;;;;;;;2.17;1.50;;;22.10;54.60;;;;;;5075181;28;20028;-87
2022/07/04 08:50:57;;;;;;;1.98;1.35;;;22.10;54.50;;;;;;5081552;28;20122;-86
2022/07/04 08:53:27;;;;;;;1.88;1.20;;;22.20;54.50;;;;;;5112078;28;20024;-87
2022/07/04 08:58:42;;;;;;;2.03;1.40;;;22.30;54.40;;;;;;5092812;28;20036;-86
2022/07/04 09:01:16;;;;;;;2.00;1.30;;;22.40;54.30;;;;;;5076342;28;20032;-87
2022/07/04 09:03:44;;;;;;;1.43;1.17;;;22.50;54.30;;;;;;5076150;28;20027;-87
2022/07/04 09:06:11;;;;;;;2.25;1.42;;;22.60;54.20;;;;;;5075692;28;20039;-87
2022/07/04 09:08:38;;;;;;;2.28;1.48;;;22.60;54.20;;;;;;5076106;28;20039;-88
2022/07/04 09:11:05;;;;;;;1.77;1.27;;;22.70;54.20;;;;;;5076580;28;20024;-87
2022/07/04 09:13:31;;;;;;;2.10;1.42;;;22.80;54.10;;;;;;5075877;28;20028;-87
2022/07/04 09:15:57;;;;;;;2.78;1.70;;;22.80;54.00;;;;;;5075917;28;20032;-87
2022/07/04 09:18:27;;;;;;;2.03;1.40;;;22.90;54.10;;;;;;5093069;28;20032;-87
2022/07/04 09:20:55;;;;;;;1.85;1.40;;;22.90;54.00;;;;;;5093359;28;20028;-88
2022/07/04 09:23:31;;;;;;;2.17;1.48;;;23.00;54.00;;;;;;5075533;28;20476;-88
2022/07/04 09:26:18;;;;;;;2.10;1.40;;;23.00;54.00;;;;;;5076398;28;20471;-87
2022/07/04 09:28:57;;;;;;;2.85;1.40;;;23.10;54.00;;;;;;5078624;28;20039;-88
2022/07/04 09:31:28;;;;;;;1.42;1.20;;;23.20;54.00;;;;;;5092780;28;20038;-87
2022/07/04 09:33:56;;;;;;;2.08;1.30;;;23.20;53.90;;;;;;5091805;28;20055;-89
2022/07/04 09:36:30;;;;;;;1.42;1.20;;;23.30;53.90;;;;;;5074781;28;20123;-87
2022/07/04 09:39:15;;;;;;;3.38;1.30;;;23.30;53.90;;;;;;5092874;28;20078;-88
2022/07/04 09:41:54;;;;;;;1.70;1.30;;;23.40;53.90;;;;;;5092162;28;20028;-87
2022/07/04 09:44:21;;;;;;;1.75;1.15;;;23.40;53.70;;;;;;5075540;28;20035;-88
2022/07/04 09:46:47;;;;;;;2.88;1.63;;;23.50;53.60;;;;;;5075501;28;20032;-87
2022/07/04 09:49:13;;;;;;;2.10;1.20;;;23.60;53.60;;;;;;5075503;28;20039;-88
2022/07/04 09:51:43;;;;;;;1.63;1.20;;;23.60;53.60;;;;;;5075248;28;20055;-88
2022/07/04 09:54:22;;;;;;;1.67;1.10;;;23.80;53.60;;;;;;5091424;28;20131;-89
2022/07/04 09:56:55;;;;;;;1.15;1.13;;;23.80;53.50;;;;;;5094025;28;20028;-90
2022/07/04 09:59:23;;;;;;;1.85;1.30;;;23.90;53.40;;;;;;5071140;28;20020;-92
2022/07/04 10:01:51;;;;;;;1.77;1.30;;;24.00;54.00;;;;;;5087257;28;20476;-90
2022/07/04 10:04:17;;;;;;;1.88;1.45;;;24.00;53.30;;;;;;5076976;28;20032;-91
2022/07/04 10:06:44;;;;;;;1.88;1.33;;;24.20;53.30;;;;;;5082379;28;20380;-92
2022/07/04 10:09:16;;;;;;;3.25;1.40;;;24.20;53.20;;;;;;5071874;28;20040;-93
2022/07/04 10:11:44;;;;;;;1.20;1.10;;;24.30;53.20;;;;;;5086911;28;20044;-89
2022/07/04 10:14:12;;;;;;;2.85;1.30;;;24.40;53.10;;;;;;5082280;28;20043;-88
2022/07/04 10:16:39;;;;;;;2.15;1.20;;;24.40;53.00;;;;;;5088133;28;20038;-87
2022/07/04 10:19:06;;;;;;;1.33;1.05;;;24.50;53.60;;;;;;5094583;28;20039;-90
2022/07/04 10:21:33;;;;;;;1.48;1.10;;;24.60;52.90;;;;;;5084541;28;20035;-87
2022/07/04 10:23:59;;;;;;;1.67;1.10;;;24.60;53.40;;;;;;5074544;28;20033;-90
2022/07/04 10:26:28;;;;;;;1.25;1.15;;;24.70;52.70;;;;;;5092251;28;20054;-94
2022/07/04 10:28:54;;;;;;;2.45;1.13;;;24.80;52.60;;;;;;5091915;28;20047;-86
2022/07/04 10:31:23;;;;;;;1.15;1.05;;;24.80;52.50;;;;;;5074282;28;20038;-89
2022/07/04 10:33:50;;;;;;;1.25;1.05;;;24.90;52.50;;;;;;5074130;28;20073;-87
2022/07/04 10:36:18;;;;;;;1.35;0.90;;;25.00;52.40;;;;;;5060258;28;20066;-91
2022/07/04 10:38:51;;;;;;;2.33;1.45;;;25.10;52.40;;;;;;5105962;28;20044;-88
2022/07/04 10:41:20;;;;;;;1.70;1.20;;;25.10;52.30;;;;;;5112149;28;20474;-87
2022/07/04 10:44:00;;;;;;;2.15;1.20;;;25.20;52.20;;;;;;5104811;28;20054;-89
2022/07/04 10:46:28;;;;;;;1.83;0.93;;;25.30;52.20;;;;;;5113553;28;20440;-87
2022/07/04 10:49:16;;;;;;;1.85;0.95;;;25.30;52.10;;;;;;5091324;28;20020;-87
2022/07/04 10:51:47;;;;;;;1.42;1.02;;;25.40;52.20;;;;;;5094467;28;20471;-87
2022/07/04 10:54:17;;;;;;;1.63;1.20;;;25.40;52.00;;;;;;5077560;28;20048;-86
2022/07/04 10:56:45;;;;;;;2.45;1.30;;;25.50;52.00;;;;;;5111493;28;20035;-87
2022/07/04 10:59:13;;;;;;;1.85;1.00;;;25.50;52.00;;;;;;5097401;28;20084;-87
2022/07/04 11:01:45;;;;;;;2.22;1.25;;;25.50;52.00;;;;;;5116100;28;20111;-87
2022/07/04 11:04:11;;;;;;;1.45;1.10;;;25.60;52.00;;;;;;5097401;28;20024;-87
2022/07/04 11:06:37;;;;;;;1.38;1.10;;;25.60;52.00;;;;;;5080549;28;20031;-90
2022/07/04 11:09:12;;;;;;;2.08;1.20;;;25.60;51.90;;;;;;5113838;28;20035;-86
2022/07/04 11:11:47;;;;;;;1.50;1.00;;;25.60;52.00;;;;;;5097319;28;20027;-87
2022/07/04 11:14:36;;;;;;;1.90;1.10;;;25.70;52.00;;;;;;5086678;28;20052;-90
2022/07/04 11:17:04;;;;;;;1.17;1.00;;;25.70;52.10;;;;;;5078218;28;20440;-88
2022/07/04 11:19:30;;;;;;;1.50;1.10;;;25.80;52.00;;;;;;5059320;28;20036;-88
2022/07/04 11:21:59;;;;;;;1.60;0.90;;;25.80;52.10;;;;;;5060165;28;20032;-88
2022/07/04 11:24:26;;;;;;;1.98;1.20;;;25.90;52.10;;;;;;5075105;28;20039;-88
2022/07/04 11:26:52;;;;;;;1.25;0.90;;;25.90;52.20;;;;;;5083760;28;20023;-86
2022/07/04 11:29:18;;;;;;;1.60;1.02;;;25.90;52.10;;;;;;5076470;28;20047;-88
2022/07/04 11:31:47;;;;;;;1.80;1.17;;;26.00;52.20;;;;;;5076293;28;20028;-87
2022/07/04 11:34:13;;;;;;;1.60;0.90;;;26.00;52.20;;;;;;5086894;28;20036;-87
2022/07/04 11:36:44;;;;;;;1.30;0.82;;;26.00;52.10;;;;;;5076863;28;20109;-87
2022/07/04 11:39:18;;;;;;;1.05;0.95;;;26.10;52.20;;;;;;5083762;28;20048;-88
2022/07/04 11:47:41;;;;;;;1.02;0.90;;;26.20;52.20;;;;;;5114051;28;20032;-85
2022/07/04 11:50:13;;;;;;;1.13;0.93;;;26.20;52.30;;;;;;5063274;28;20031;-85
2022/07/04 11:52:47;;;;;;;1.50;1.10;;;26.20;52.30;;;;;;5076260;28;20035;-85
2022/07/04 11:55:16;;;;;;;1.42;0.93;;;26.30;52.40;;;;;;5094079;28;20016;-85
2022/07/04 11:57:55;;;;;;;0.88;0.88;;;26.30;52.40;;;;;;5091377;28;20748;-89
2022/07/04 12:00:25;;;;;;;1.00;0.90;;;26.30;52.40;;;;;;5075923;28;20024;-85
2022/07/04 12:02:51;;;;;;;1.00;0.80;;;26.30;52.50;;;;;;5075767;28;20036;-84
2022/07/04 12:05:18;;;;;;;1.23;1.00;;;26.40;52.60;;;;;;5060121;28;20024;-85
2022/07/04 12:07:46;;;;;;;1.58;0.90;;;26.40;52.60;;;;;;5076165;28;20422;-85
2022/07/04 12:10:18;;;;;;;1.98;1.05;;;26.40;52.50;;;;;;5076608;28;20035;-86
2022/07/04 12:12:55;;;;;;;1.45;0.90;;;26.40;52.50;;;;;;5093671;28;20131;-85
2022/07/04 12:15:22;;;;;;;1.00;0.90;;;26.50;52.60;;;;;;5094069;28;20028;-85
2022/07/04 12:17:55;;;;;;;1.42;1.00;;;26.50;52.50;;;;;;5093672;28;20067;-84
2022/07/04 12:20:25;;;;;;;1.92;0.82;;;26.50;52.60;;;;;;5076996;28;20138;-86
2022/07/04 12:22:59;;;;;;;1.48;1.00;;;26.50;52.60;;;;;;5095138;28;20024;-84
2022/07/04 12:25:38;;;;;;;1.63;0.93;;;26.60;52.70;;;;;;5076716;28;20032;-85
2022/07/04 12:28:12;;;;;;;0.70;0.70;;;26.60;52.70;;;;;;5076158;28;20024;-85
2022/07/04 12:30:47;;;;;;;1.35;1.08;;;26.60;52.70;;;;;;5075578;28;20036;-84
2022/07/04 12:33:13;;;;;;;0.82;0.68;;;26.60;52.60;;;;;;5075837;28;20388;-85
2022/07/04 12:35:51;;;;;;;1.08;0.82;;;26.60;52.60;;;;;;5042623;28;20169;-85
2022/07/04 12:38:37;;;;;;;0.90;0.82;;;26.70;52.70;;;;;;5075394;28;20051;-85
2022/07/04 12:41:08;;;;;;;1.15;0.73;;;26.70;52.70;;;;;;5093680;28;20042;-85
2022/07/04 12:43:42;;;;;;;1.95;1.08;;;26.70;52.70;;;;;;5076186;28;20388;-85
2022/07/04 12:46:09;;;;;;;0.82;0.80;;;26.70;52.70;;;;;;5092900;28;20043;-85
2022/07/04 12:48:36;;;;;;;1.30;1.08;;;26.70;52.60;;;;;;5092315;28;20467;-87
2022/07/04 12:51:12;;;;;;;0.98;0.88;;;26.70;52.60;;;;;;5093004;28;20122;-86
2022/07/04 12:53:40;;;;;;;1.13;1.00;;;26.70;52.60;;;;;;5092439;28;20027;-85
2022/07/04 12:56:06;;;;;;;1.45;0.98;;;26.70;52.50;;;;;;5092840;28;20028;-85
2022/07/04 12:58:32;;;;;;;0.95;0.85;;;26.70;52.40;;;;;;5075405;28;20437;-85
2022/07/04 13:01:01;;;;;;;1.50;1.00;;;26.70;52.40;;;;;;5092924;28;20105;-85
2022/07/04 13:03:26;;;;;;;0.85;0.68;;;26.70;52.30;;;;;;5058883;28;20104;-86
2022/07/04 13:05:52;;;;;;;1.05;0.95;;;26.80;52.30;;;;;;5074896;28;20483;-84
2022/07/04 13:08:18;;;;;;;1.33;0.90;;;26.80;52.30;;;;;;5041942;28;20043;-85